createdAt,value
2019-03-21T00:01:32.557Z,8.00
2019-03-21T00:04:10.188Z,12.97
2019-03-21T00:06:38.829Z,11.57
2019-03-21T00:09:09.567Z,11.10
2019-03-21T00:12:00.809Z,13.90
2019-03-21T00:14:41.333Z,12.17
2019-03-21T00:17:27.794Z,13.93
2019-03-21T00:19:56.499Z,14.13
2019-03-21T00:22:25.184Z,11.17
2019-03-21T00:24:53.853Z,11.03
2019-03-21T00:27:22.418Z,9.73
2019-03-21T00:29:51.043Z,13.30
2019-03-21T00:32:19.733Z,9.47
2019-03-21T00:34:48.411Z,14.40
2019-03-21T00:37:16.977Z,12.53
2019-03-21T00:39:45.567Z,12.97
2019-03-21T00:42:14.133Z,12.80
2019-03-21T00:44:42.882Z,12.73
2019-03-21T00:47:11.520Z,10.70
2019-03-21T00:49:40.204Z,10.67
2019-03-21T00:52:08.809Z,12.77
2019-03-21T00:54:37.404Z,14.30
2019-03-21T00:57:07.520Z,13.07
2019-03-21T00:59:36.105Z,11.77
2019-03-21T01:02:05.105Z,16.47
2019-03-21T01:04:33.759Z,14.20
2019-03-21T01:07:02.455Z,11.77
2019-03-21T01:09:31.060Z,9.80
2019-03-21T01:11:59.765Z,9.60
2019-03-21T01:14:29.975Z,12.10
2019-03-21T01:16:58.765Z,13.23
2019-03-21T01:19:27.449Z,13.97
2019-03-21T01:21:56.004Z,12.07
2019-03-21T01:24:24.690Z,11.77
2019-03-21T01:26:53.256Z,11.47
2019-03-21T01:29:21.844Z,9.83
2019-03-21T01:31:50.449Z,17.93
2019-03-21T01:34:19.017Z,10.77
2019-03-21T01:36:47.711Z,10.97
2019-03-21T01:39:17.454Z,10.17
2019-03-21T01:41:46.691Z,11.50
2019-03-21T01:44:15.206Z,19.60
2019-03-21T01:46:43.793Z,14.27
2019-03-21T01:49:12.424Z,17.23
2019-03-21T01:51:41.246Z,14.40
2019-03-21T01:54:09.874Z,14.63
2019-03-21T01:56:38.553Z,10.53
2019-03-21T01:59:07.203Z,9.93
2019-03-21T02:01:35.863Z,11.53
2019-03-21T02:04:04.526Z,12.37
2019-03-21T02:06:33.127Z,11.07
2019-03-21T02:09:01.702Z,16.20
2019-03-21T02:11:30.332Z,13.60
2019-03-21T02:13:58.890Z,9.60
2019-03-21T02:16:27.490Z,10.43
2019-03-21T02:18:56.062Z,9.37
2019-03-21T02:21:24.700Z,11.50
2019-03-21T02:23:53.248Z,14.07
2019-03-21T02:26:21.833Z,9.83
2019-03-21T02:28:50.425Z,11.07
2019-03-21T02:31:19.027Z,13.60
2019-03-21T02:33:47.606Z,10.70
2019-03-21T02:36:16.230Z,10.47
2019-03-21T02:38:44.823Z,8.63
2019-03-21T02:41:15.468Z,12.67
2019-03-21T02:43:44.040Z,10.13
2019-03-21T02:46:12.636Z,9.20
2019-03-21T02:48:41.201Z,11.40
2019-03-21T02:51:09.818Z,10.97
2019-03-21T02:53:38.451Z,13.63
2019-03-21T02:56:12.657Z,14.00
2019-03-21T02:58:41.239Z,13.57
2019-03-21T03:01:09.832Z,10.43
2019-03-21T03:03:38.417Z,10.10
2019-03-21T03:06:09.826Z,14.37
2019-03-21T03:08:38.343Z,13.57
2019-03-21T03:11:12.951Z,10.27
2019-03-21T03:13:43.663Z,14.07
2019-03-21T03:16:12.340Z,12.10
2019-03-21T03:18:40.909Z,12.97
2019-03-21T03:21:09.488Z,11.77
2019-03-21T03:23:38.110Z,9.60
2019-03-21T03:26:06.726Z,13.33
2019-03-21T03:28:38.383Z,10.83
2019-03-21T03:31:07.127Z,10.13
2019-03-21T03:33:35.768Z,16.27
2019-03-21T03:36:04.389Z,10.67
2019-03-21T03:38:33.149Z,12.57
2019-03-21T03:41:06.818Z,15.00
2019-03-21T03:43:35.425Z,9.80
2019-03-21T03:46:04.089Z,10.00
2019-03-21T03:48:32.686Z,8.75
2019-03-21T03:51:01.261Z,20.80
2019-03-21T03:53:29.965Z,11.13
2019-03-21T03:55:58.557Z,14.00
2019-03-21T03:58:35.939Z,23.30
2019-03-21T04:01:04.769Z,17.13
2019-03-21T04:03:33.484Z,19.43
2019-03-21T04:06:02.121Z,16.93
2019-03-21T04:08:30.778Z,15.53
2019-03-21T04:10:59.417Z,13.70
2019-03-21T04:13:28.159Z,12.90
2019-03-21T04:15:56.709Z,15.90
2019-03-21T04:18:25.969Z,12.30
2019-03-21T04:21:03.433Z,12.37
2019-03-21T04:23:32.093Z,16.47
2019-03-21T04:26:06.387Z,16.37
2019-03-21T04:28:35.452Z,11.97
2019-03-21T04:31:04.127Z,14.30
2019-03-21T04:33:32.741Z,12.43
2019-03-21T04:36:02.580Z,14.18
2019-03-21T04:38:31.202Z,17.15
2019-03-21T04:40:59.777Z,13.67
2019-03-21T04:43:28.427Z,11.87
2019-03-21T04:46:03.219Z,10.40
2019-03-21T04:48:27.350Z,16.03
2019-03-21T04:50:55.997Z,11.00
2019-03-21T04:53:24.672Z,11.17
2019-03-21T04:55:53.275Z,11.77
2019-03-21T04:58:22.863Z,10.88
2019-03-21T05:00:56.386Z,16.42
2019-03-21T05:03:29.220Z,11.07
2019-03-21T05:05:57.794Z,19.50
2019-03-21T05:08:26.420Z,15.57
2019-03-21T05:10:55.004Z,17.57
2019-03-21T05:13:23.672Z,17.07
2019-03-21T05:16:14.294Z,19.03
2019-03-21T05:18:56.246Z,17.93
2019-03-21T05:21:25.307Z,16.93
2019-03-21T05:23:58.054Z,13.13
2019-03-21T05:26:26.634Z,18.02
2019-03-21T05:28:55.276Z,13.62
2019-03-21T05:31:27.251Z,18.25
2019-03-21T05:33:57.821Z,20.37
2019-03-21T05:36:26.369Z,16.50
2019-03-21T05:38:54.997Z,17.12
2019-03-21T05:41:24.069Z,22.13
2019-03-21T05:44:19.487Z,17.93
2019-03-21T05:46:48.126Z,22.60
2019-03-21T05:49:16.714Z,17.47
2019-03-21T05:51:51.359Z,16.07
2019-03-21T05:54:19.955Z,17.03
2019-03-21T05:57:07.879Z,19.53
2019-03-21T05:59:43.757Z,13.67
2019-03-21T06:02:12.273Z,16.77
2019-03-21T06:04:40.870Z,15.77
2019-03-21T06:07:12.589Z,14.63
2019-03-21T06:09:41.192Z,15.77
2019-03-21T06:12:09.775Z,24.03
2019-03-21T06:14:50.587Z,16.13
2019-03-21T06:17:19.181Z,12.43
2019-03-21T06:19:53.718Z,14.10
2019-03-21T06:22:40.383Z,11.37
2019-03-21T06:25:16.516Z,19.73
2019-03-21T06:27:45.398Z,13.20
2019-03-21T06:30:14.044Z,13.30
2019-03-21T06:32:42.698Z,14.03
2019-03-21T06:35:21.653Z,14.70
2019-03-21T06:37:50.286Z,13.10
2019-03-21T06:40:19.009Z,16.80
2019-03-21T06:42:47.626Z,17.20
2019-03-21T06:45:16.236Z,12.67
2019-03-21T06:47:44.900Z,15.17
2019-03-21T06:50:13.551Z,14.47
2019-03-21T06:52:42.125Z,9.43
2019-03-21T06:55:10.821Z,17.93
2019-03-21T06:57:39.442Z,11.37
2019-03-21T07:00:10.071Z,15.87
2019-03-21T07:02:38.633Z,14.23
2019-03-21T07:05:07.378Z,13.57
2019-03-21T07:07:35.961Z,11.80
2019-03-21T07:10:10.321Z,15.70
2019-03-21T07:12:38.850Z,16.93
2019-03-21T07:15:09.501Z,17.77
2019-03-21T07:17:38.063Z,13.87
2019-03-21T07:20:09.006Z,16.33
2019-03-21T07:22:38.563Z,11.13
2019-03-21T07:25:08.732Z,15.43
2019-03-21T07:27:37.378Z,15.67
2019-03-21T07:30:14.644Z,17.40
2019-03-21T07:32:43.344Z,13.23
2019-03-21T07:35:12.960Z,13.23
2019-03-21T07:37:41.536Z,16.00
2019-03-21T07:40:12.809Z,15.93
2019-03-21T07:42:41.532Z,13.60
2019-03-21T07:45:11.862Z,11.37
2019-03-21T07:47:40.510Z,11.43
2019-03-21T07:50:14.202Z,9.23
2019-03-21T07:52:42.918Z,11.90
2019-03-21T07:55:12.066Z,12.17
2019-03-21T07:57:40.733Z,18.20
2019-03-21T08:00:19.301Z,11.80
2019-03-21T08:02:49.471Z,11.73
2019-03-21T08:05:18.198Z,11.83
2019-03-21T08:07:46.746Z,8.67
2019-03-21T08:10:15.494Z,13.67
2019-03-21T08:12:44.106Z,12.53
2019-03-21T08:15:16.782Z,16.27
2019-03-21T08:17:45.506Z,14.53
2019-03-21T08:20:17.615Z,10.97
2019-03-21T08:22:55.626Z,9.77
2019-03-21T08:25:24.447Z,11.83
2019-03-21T08:27:53.324Z,10.83
2019-03-21T08:30:25.021Z,11.87
2019-03-21T08:32:53.574Z,14.20
2019-03-21T08:35:22.190Z,12.63
2019-03-21T08:37:50.782Z,13.20
2019-03-21T08:40:19.450Z,13.93
2019-03-21T08:42:48.201Z,12.77
2019-03-21T08:45:16.837Z,10.30
2019-03-21T08:47:45.484Z,12.80
2019-03-21T08:50:14.238Z,10.03
2019-03-21T08:52:42.924Z,16.10
2019-03-21T08:55:11.697Z,19.13
2019-03-21T08:57:40.847Z,13.77
2019-03-21T09:00:12.594Z,13.10
2019-03-21T09:02:41.589Z,10.47
2019-03-21T09:05:11.229Z,11.60
2019-03-21T09:07:40.003Z,9.43
2019-03-21T09:10:10.624Z,11.87
2019-03-21T09:12:39.473Z,12.13
2019-03-21T09:15:09.543Z,17.37
2019-03-21T09:17:38.464Z,12.40
2019-03-21T09:20:09.129Z,20.27
2019-03-21T09:22:37.993Z,10.90
2019-03-21T09:25:07.656Z,10.17
2019-03-21T09:27:36.626Z,14.33
2019-03-21T09:30:08.517Z,11.53
2019-03-21T09:32:37.386Z,10.33
2019-03-21T09:35:07.730Z,10.87
2019-03-21T09:37:37.680Z,12.70
2019-03-21T09:40:09.481Z,12.60
2019-03-21T09:42:40.080Z,7.60
2019-03-21T09:45:09.211Z,11.97
2019-03-21T09:47:40.846Z,7.00
2019-03-21T09:50:11.023Z,9.23
2019-03-21T09:52:39.647Z,8.97
2019-03-21T09:55:10.134Z,11.87
2019-03-21T09:57:41.384Z,13.67
2019-03-21T10:00:10.856Z,9.27
2019-03-21T10:02:39.675Z,7.13
2019-03-21T10:05:08.726Z,8.07
2019-03-21T10:07:37.596Z,9.43
2019-03-21T10:10:10.908Z,9.87
2019-03-21T10:12:39.808Z,12.67
2019-03-21T10:15:10.157Z,6.80
2019-03-21T10:17:38.759Z,11.80
2019-03-21T10:20:07.466Z,7.40
2019-03-21T10:22:36.066Z,9.43
2019-03-21T10:25:06.387Z,13.57
2019-03-21T10:27:34.975Z,8.73
2019-03-21T10:30:05.647Z,16.23
2019-03-21T10:32:34.327Z,12.23
2019-03-21T10:35:03.075Z,11.23
2019-03-21T10:37:31.688Z,11.83
2019-03-21T10:40:00.361Z,9.23
2019-03-21T10:42:28.942Z,8.27
2019-03-21T10:44:57.505Z,10.23
2019-03-21T10:47:26.102Z,9.73
2019-03-21T10:49:54.667Z,10.57
2019-03-21T10:52:23.290Z,14.63
2019-03-21T10:54:51.854Z,8.47
2019-03-21T10:57:20.549Z,14.50
2019-03-21T10:59:49.154Z,11.77
2019-03-21T11:02:17.823Z,13.30
2019-03-21T11:04:46.415Z,7.37
2019-03-21T11:07:13.951Z,11.87
2019-03-21T11:09:42.541Z,10.43
2019-03-21T11:12:11.161Z,9.03
2019-03-21T11:14:39.738Z,8.70
2019-03-21T11:17:08.361Z,11.83
2019-03-21T11:19:36.930Z,12.53
2019-03-21T11:22:06.635Z,13.60
2019-03-21T11:24:35.425Z,7.30
2019-03-21T11:27:04.099Z,12.23
2019-03-21T11:29:32.723Z,11.57
2019-03-21T11:32:01.306Z,6.37
2019-03-21T11:34:29.925Z,9.80
2019-03-21T11:36:58.559Z,8.17
2019-03-21T11:39:27.128Z,5.10
2019-03-21T11:41:55.858Z,10.27
2019-03-21T11:44:24.446Z,7.57
2019-03-21T11:46:53.040Z,9.87
2019-03-21T11:49:21.759Z,8.50
2019-03-21T11:51:50.510Z,9.33
2019-03-21T11:54:19.082Z,10.67
2019-03-21T11:56:47.791Z,12.93
2019-03-21T11:59:16.528Z,9.00
2019-03-21T12:01:45.309Z,7.73
2019-03-21T12:04:13.939Z,8.87
2019-03-21T12:06:42.539Z,8.23
2019-03-21T12:09:11.149Z,7.50
2019-03-21T12:11:39.788Z,8.90
2019-03-21T12:14:10.162Z,9.63
2019-03-21T12:16:38.878Z,8.67
2019-03-21T12:19:07.559Z,6.70
2019-03-21T12:21:36.143Z,6.50
2019-03-21T12:24:04.886Z,5.80
2019-03-21T12:26:33.485Z,7.50
2019-03-21T12:29:02.113Z,5.37
2019-03-21T12:31:30.681Z,7.93
2019-03-21T12:33:59.792Z,8.47
2019-03-21T12:36:29.945Z,5.23
2019-03-21T12:38:58.543Z,7.00
2019-03-21T12:41:27.201Z,8.93
2019-03-21T12:43:55.814Z,11.07
2019-03-21T12:46:24.447Z,7.20
2019-03-21T12:48:53.044Z,5.90
2019-03-21T12:51:21.833Z,6.93
2019-03-21T12:53:51.990Z,8.03
2019-03-21T12:56:21.479Z,9.57
2019-03-21T12:58:50.051Z,7.30
2019-03-21T13:01:18.621Z,9.77
2019-03-21T13:03:47.242Z,8.03
2019-03-21T13:06:15.870Z,13.70
2019-03-21T13:08:44.475Z,6.63
2019-03-21T13:11:13.060Z,8.60
2019-03-21T13:13:41.668Z,7.13
2019-03-21T13:16:10.257Z,10.17
2019-03-21T13:18:38.931Z,11.73
2019-03-21T13:21:07.532Z,10.03
2019-03-21T13:23:36.114Z,12.73
2019-03-21T13:26:04.848Z,6.67
2019-03-21T13:28:33.493Z,9.60
2019-03-21T13:31:02.141Z,7.20
2019-03-21T13:33:30.742Z,7.80
2019-03-21T13:35:59.413Z,7.17
2019-03-21T13:38:28.000Z,10.07
2019-03-21T13:40:56.657Z,9.70
2019-03-21T13:43:25.381Z,9.43
2019-03-21T13:45:53.952Z,9.00
2019-03-21T13:48:22.569Z,11.97
2019-03-21T13:50:51.276Z,8.77
2019-03-21T13:53:19.857Z,8.93
2019-03-21T13:55:48.418Z,8.03
2019-03-21T13:58:17.029Z,10.37
2019-03-21T14:00:45.682Z,7.90
2019-03-21T14:03:24.653Z,8.73
2019-03-21T14:05:44.626Z,5.43
2019-03-21T14:08:13.271Z,7.23
2019-03-21T14:10:41.974Z,6.67
2019-03-21T14:13:10.574Z,7.80
2019-03-21T14:15:39.273Z,5.57
2019-03-21T14:18:07.945Z,5.63
2019-03-21T14:20:36.539Z,4.70
2019-03-21T14:23:16.437Z,12.10
2019-03-21T14:25:35.454Z,10.10
2019-03-21T14:28:04.178Z,8.90
2019-03-21T14:30:32.809Z,12.53
2019-03-21T14:33:01.391Z,10.03
2019-03-21T14:35:29.984Z,6.70
2019-03-21T14:37:58.571Z,8.70
2019-03-21T14:40:27.301Z,9.37
2019-03-21T14:42:55.938Z,10.67
2019-03-21T14:45:24.558Z,6.20
2019-03-21T14:47:53.130Z,12.80
2019-03-21T14:50:21.791Z,4.83
2019-03-21T14:52:50.529Z,5.83
2019-03-21T14:55:19.123Z,8.57
2019-03-21T14:57:47.709Z,10.00
2019-03-21T15:00:20.285Z,8.33
2019-03-21T15:02:48.854Z,8.23
2019-03-21T15:05:17.590Z,11.03
2019-03-21T15:07:46.301Z,9.50
2019-03-21T15:10:18.539Z,11.57
2019-03-21T15:12:47.109Z,11.67
2019-03-21T15:15:16.142Z,9.17
2019-03-21T15:17:44.859Z,7.03
2019-03-21T15:20:17.319Z,8.03
2019-03-21T15:22:46.114Z,7.27
2019-03-21T15:25:14.910Z,8.83
2019-03-21T15:27:43.574Z,6.77
2019-03-21T15:30:15.205Z,10.33
2019-03-21T15:32:43.965Z,8.70
2019-03-21T15:35:13.736Z,15.37
2019-03-21T15:37:42.298Z,15.50
2019-03-21T15:40:13.645Z,10.40
2019-03-21T15:42:42.279Z,8.00
2019-03-21T15:45:22.622Z,10.57
2019-03-21T15:47:47.034Z,13.10
2019-03-21T15:50:30.865Z,21.17
2019-03-21T15:52:59.621Z,9.67
2019-03-21T15:55:28.317Z,6.93
2019-03-21T15:57:56.946Z,9.50
2019-03-21T16:00:42.926Z,9.43
2019-03-21T16:03:13.472Z,14.33
2019-03-21T16:05:42.517Z,9.93
2019-03-21T16:08:11.166Z,9.90
2019-03-21T16:10:39.894Z,8.40
2019-03-21T16:13:08.614Z,12.77
2019-03-21T16:15:37.214Z,15.73
2019-03-21T16:18:05.912Z,10.60
2019-03-21T16:20:34.851Z,12.70
2019-03-21T16:23:03.483Z,9.00
2019-03-21T16:25:32.082Z,10.37
2019-03-21T16:28:00.680Z,12.10
2019-03-21T16:30:29.250Z,9.30
2019-03-21T16:32:57.822Z,12.83
2019-03-21T16:35:26.605Z,9.40
2019-03-21T16:37:55.161Z,13.10
2019-03-21T16:40:23.858Z,11.90
2019-03-21T16:42:52.529Z,9.87
2019-03-21T16:45:21.545Z,9.77
2019-03-21T16:47:50.189Z,12.63
2019-03-21T16:50:18.976Z,32.60
2019-03-21T16:52:47.815Z,18.03
2019-03-21T16:55:16.533Z,20.27
2019-03-21T16:57:45.390Z,19.73
2019-03-21T17:00:17.990Z,36.83
2019-03-21T17:02:47.644Z,26.73
2019-03-21T17:05:16.416Z,14.00
2019-03-21T17:07:45.030Z,11.37
2019-03-21T17:10:17.094Z,24.30
2019-03-21T17:12:45.682Z,11.20
2019-03-21T17:15:14.490Z,19.83
2019-03-21T17:17:43.357Z,15.13
2019-03-21T17:20:13.042Z,11.30
2019-03-21T17:22:41.627Z,13.83
2019-03-21T17:25:10.743Z,11.87
2019-03-21T17:27:39.409Z,17.13
2019-03-21T17:30:11.125Z,10.33
2019-03-21T17:32:39.788Z,16.13
2019-03-21T17:35:08.927Z,14.83
2019-03-21T17:37:37.555Z,16.00
2019-03-21T17:40:13.905Z,16.00
2019-03-21T17:42:42.666Z,18.70
2019-03-21T17:45:14.334Z,16.07
2019-03-21T17:47:43.254Z,18.23
2019-03-21T17:50:14.193Z,14.00
2019-03-21T17:52:42.866Z,18.60
2019-03-21T17:55:11.850Z,21.63
2019-03-21T17:57:40.529Z,19.17
2019-03-21T18:00:12.347Z,23.47
2019-03-21T18:02:41.195Z,22.70
2019-03-21T18:05:09.913Z,20.63
2019-03-21T18:07:38.681Z,19.40
2019-03-21T18:10:10.170Z,33.83
2019-03-21T18:12:38.931Z,38.13
2019-03-21T18:15:07.686Z,22.90
2019-03-21T18:17:36.406Z,18.87
2019-03-21T18:20:06.331Z,17.33
2019-03-21T18:22:35.081Z,29.30
2019-03-21T18:25:05.279Z,23.27
2019-03-21T18:27:33.874Z,47.70
2019-03-21T18:30:02.502Z,40.93
2019-03-21T18:32:31.222Z,45.83
2019-03-21T18:34:59.855Z,86.83
2019-03-21T18:37:28.450Z,78.20
2019-03-21T18:39:57.139Z,62.30
2019-03-21T18:42:25.885Z,55.63
2019-03-21T18:44:54.475Z,53.83
2019-03-21T18:47:23.054Z,37.50
2019-03-21T18:49:51.669Z,23.93
2019-03-21T18:52:20.314Z,22.57
2019-03-21T18:54:48.997Z,24.07
2019-03-21T18:57:17.661Z,19.97
2019-03-21T18:59:46.256Z,26.07
2019-03-21T19:02:14.858Z,18.37
2019-03-21T19:04:43.597Z,16.17
2019-03-21T19:07:13.776Z,15.20
2019-03-21T19:09:44.013Z,27.20
2019-03-21T19:12:12.630Z,32.90
2019-03-21T19:14:41.262Z,31.23
2019-03-21T19:17:09.827Z,28.07
2019-03-21T19:19:39.015Z,25.73
2019-03-21T19:22:07.664Z,36.00
2019-03-21T19:24:36.379Z,38.97
2019-03-21T19:27:05.114Z,31.77
2019-03-21T19:29:33.881Z,35.70
2019-03-21T19:32:09.767Z,30.73
2019-03-21T19:34:38.488Z,28.63
2019-03-21T19:37:07.057Z,27.27
2019-03-21T19:39:35.995Z,27.93
2019-03-21T19:42:05.657Z,26.93
2019-03-21T19:44:38.036Z,22.17
2019-03-21T19:47:06.690Z,21.70
2019-03-21T19:49:35.335Z,20.10
2019-03-21T19:52:05.445Z,20.93
2019-03-21T19:54:34.454Z,24.20
2019-03-21T19:57:03.055Z,42.43
2019-03-21T19:59:31.708Z,31.57
2019-03-21T20:02:00.440Z,25.57
2019-03-21T20:04:29.055Z,27.30
2019-03-21T20:06:57.615Z,24.40
2019-03-21T20:09:26.331Z,36.70
2019-03-21T20:11:55.001Z,20.73
2019-03-21T20:14:23.577Z,36.07
2019-03-21T20:16:52.258Z,51.63
2019-03-21T20:19:20.924Z,43.93
2019-03-21T20:22:08.930Z,31.33
2019-03-21T20:24:37.530Z,29.87
2019-03-21T20:27:06.182Z,26.50
2019-03-21T20:29:34.951Z,26.07
2019-03-21T20:32:03.537Z,21.33
2019-03-21T20:34:32.243Z,31.03
2019-03-21T20:37:00.794Z,27.53
2019-03-21T20:39:29.469Z,21.37
2019-03-21T20:41:58.022Z,23.10
2019-03-21T20:44:26.692Z,14.87
2019-03-21T20:46:55.258Z,19.37
2019-03-21T20:49:23.854Z,16.63
2019-03-21T20:51:52.510Z,15.80
2019-03-21T20:54:21.095Z,17.33
2019-03-21T20:57:28.025Z,16.70
2019-03-21T20:59:56.600Z,22.30
2019-03-21T21:02:25.172Z,18.27
2019-03-21T21:04:53.873Z,14.90
2019-03-21T21:07:25.584Z,18.67
2019-03-21T21:09:54.239Z,31.33
2019-03-21T21:12:22.790Z,23.07
2019-03-21T21:14:51.378Z,20.37
2019-03-21T21:17:19.996Z,16.73
2019-03-21T21:19:48.584Z,15.83
2019-03-21T21:22:17.137Z,21.07
2019-03-21T21:24:45.783Z,19.00
2019-03-21T21:27:14.345Z,14.00
2019-03-21T21:29:43.140Z,16.93
2019-03-21T21:32:11.986Z,17.70
2019-03-21T21:34:40.556Z,15.87
2019-03-21T21:37:09.201Z,15.80
2019-03-21T21:39:37.792Z,18.90
2019-03-21T21:42:06.344Z,22.57
2019-03-21T21:44:34.929Z,13.10
2019-03-21T21:47:03.495Z,18.13
2019-03-21T21:49:32.127Z,13.30
2019-03-21T21:55:41.927Z,16.83
2019-03-21T21:58:10.490Z,16.37
2019-03-21T22:00:39.045Z,13.40
2019-03-21T22:03:07.594Z,17.47
2019-03-21T22:05:36.183Z,14.43
2019-03-21T22:08:04.731Z,15.43
2019-03-21T22:10:33.305Z,13.97
2019-03-21T22:13:01.920Z,17.07
2019-03-21T22:15:30.518Z,17.87
2019-03-21T22:18:00.250Z,15.40
2019-03-21T22:20:28.843Z,17.03
2019-03-21T22:22:57.919Z,21.27
2019-03-21T22:25:26.563Z,17.57
2019-03-21T22:27:55.070Z,21.00
2019-03-21T22:30:23.684Z,21.20
2019-03-21T22:32:52.328Z,20.07
2019-03-21T22:35:20.919Z,34.87
2019-03-21T22:37:49.607Z,28.23
2019-03-21T22:40:20.951Z,25.10
2019-03-21T22:42:49.527Z,21.50
2019-03-21T22:45:18.272Z,18.43
2019-03-21T22:47:46.939Z,15.93
2019-03-21T22:50:16.641Z,22.80
2019-03-21T22:52:45.857Z,13.53
2019-03-21T22:55:14.839Z,17.93
2019-03-21T22:57:43.657Z,15.73
2019-03-21T23:00:15.221Z,22.83
2019-03-21T23:02:43.873Z,23.20
2019-03-21T23:05:12.758Z,19.47
2019-03-21T23:07:41.941Z,15.53
2019-03-21T23:10:10.978Z,17.23
2019-03-21T23:12:39.735Z,16.80
2019-03-21T23:15:09.943Z,16.47
2019-03-21T23:17:38.767Z,17.13
2019-03-21T23:20:12.206Z,14.10
2019-03-21T23:22:40.869Z,14.77
2019-03-21T23:25:10.786Z,13.17
2019-03-21T23:27:39.467Z,15.00
2019-03-21T23:30:10.771Z,14.27
2019-03-21T23:32:39.490Z,15.77
2019-03-21T23:35:08.381Z,17.83
2019-03-21T23:37:37.600Z,14.33
2019-03-21T23:40:07.883Z,14.20
2019-03-21T23:42:36.569Z,15.93
2019-03-21T23:45:09.879Z,15.20
2019-03-21T23:47:38.526Z,16.37
2019-03-21T23:50:09.573Z,17.63
2019-03-21T23:52:38.386Z,20.23
2019-03-21T23:55:08.177Z,17.70
2019-03-21T23:57:36.705Z,15.50
